sensor_id;sensor_type;location;lat;lon;timestamp;temperature;humidity
65374;SHT31;52070;53.760;9.678;2023-07-16T00:01:54;17.61;93.73
65374;SHT31;52070;53.760;9.678;2023-07-16T00:04:21;17.68;93.88
65374;SHT31;52070;53.760;9.678;2023-07-16T00:06:48;17.68;94.01
65374;SHT31;52070;53.760;9.678;2023-07-16T00:09:15;17.64;93.99
65374;SHT31;52070;53.760;9.678;2023-07-16T00:11:44;17.70;94.02
65374;SHT31;52070;53.760;9.678;2023-07-16T00:14:11;17.68;94.03
65374;SHT31;52070;53.760;9.678;2023-07-16T00:16:38;17.70;94.06
65374;SHT31;52070;53.760;9.678;2023-07-16T00:19:05;17.67;93.98
65374;SHT31;52070;53.760;9.678;2023-07-16T00:21:32;17.67;93.90
65374;SHT31;52070;53.760;9.678;2023-07-16T00:23:59;17.67;93.91
65374;SHT31;52070;53.760;9.678;2023-07-16T00:26:26;17.60;93.87
65374;SHT31;52070;53.760;9.678;2023-07-16T00:28:54;17.61;93.93
65374;SHT31;52070;53.760;9.678;2023-07-16T00:31:21;17.60;93.97
65374;SHT31;52070;53.760;9.678;2023-07-16T00:33:48;17.61;94.09
65374;SHT31;52070;53.760;9.678;2023-07-16T00:36:15;17.68;94.16
65374;SHT31;52070;53.760;9.678;2023-07-16T00:38:43;17.67;94.28
65374;SHT31;52070;53.760;9.678;2023-07-16T00:41:12;17.67;94.27
65374;SHT31;52070;53.760;9.678;2023-07-16T00:43:39;17.68;94.31
65374;SHT31;52070;53.760;9.678;2023-07-16T00:46:08;17.72;94.33
65374;SHT31;52070;53.760;9.678;2023-07-16T00:48:35;17.74;94.31
65374;SHT31;52070;53.760;9.678;2023-07-16T00:51:02;17.64;94.19
65374;SHT31;52070;53.760;9.678;2023-07-16T00:53:30;17.62;94.13
65374;SHT31;52070;53.760;9.678;2023-07-16T00:55:57;17.61;94.10
65374;SHT31;52070;53.760;9.678;2023-07-16T00:58:24;17.61;94.07
65374;SHT31;52070;53.760;9.678;2023-07-16T01:00:51;17.58;94.07
65374;SHT31;52070;53.760;9.678;2023-07-16T01:03:20;17.57;94.09
65374;SHT31;52070;53.760;9.678;2023-07-16T01:05:50;17.58;93.98
65374;SHT31;52070;53.760;9.678;2023-07-16T01:08:24;17.60;94.00
65374;SHT31;52070;53.760;9.678;2023-07-16T01:10:54;17.61;94.10
65374;SHT31;52070;53.760;9.678;2023-07-16T01:13:22;17.55;94.08
65374;SHT31;52070;53.760;9.678;2023-07-16T01:15:49;17.57;94.00
65374;SHT31;52070;53.760;9.678;2023-07-16T01:18:16;17.55;93.94
65374;SHT31;52070;53.760;9.678;2023-07-16T01:20:45;17.52;93.86
65374;SHT31;52070;53.760;9.678;2023-07-16T01:23:39;17.52;93.94
65374;SHT31;52070;53.760;9.678;2023-07-16T01:26:29;17.54;94.02
65374;SHT31;52070;53.760;9.678;2023-07-16T01:29:21;17.54;93.99
65374;SHT31;52070;53.760;9.678;2023-07-16T01:31:55;17.54;94.03
65374;SHT31;52070;53.760;9.678;2023-07-16T01:34:22;17.50;93.89
65374;SHT31;52070;53.760;9.678;2023-07-16T01:36:51;17.52;93.89
65374;SHT31;52070;53.760;9.678;2023-07-16T01:39:18;17.51;93.89
65374;SHT31;52070;53.760;9.678;2023-07-16T01:41:45;17.45;93.80
65374;SHT31;52070;53.760;9.678;2023-07-16T01:44:12;17.41;93.53
65374;SHT31;52070;53.760;9.678;2023-07-16T01:46:40;17.44;93.50
65374;SHT31;52070;53.760;9.678;2023-07-16T01:49:07;17.42;93.53
65374;SHT31;52070;53.760;9.678;2023-07-16T01:51:34;17.44;93.51
65374;SHT31;52070;53.760;9.678;2023-07-16T01:54:01;17.35;93.37
65374;SHT31;52070;53.760;9.678;2023-07-16T01:56:28;17.40;93.19
65374;SHT31;52070;53.760;9.678;2023-07-16T01:58:55;17.37;93.26
65374;SHT31;52070;53.760;9.678;2023-07-16T02:01:22;17.32;93.18
65374;SHT31;52070;53.760;9.678;2023-07-16T02:03:50;17.26;93.03
65374;SHT31;52070;53.760;9.678;2023-07-16T02:06:17;17.30;93.07
65374;SHT31;52070;53.760;9.678;2023-07-16T02:08:44;17.23;92.92
65374;SHT31;52070;53.760;9.678;2023-07-16T02:11:11;17.26;92.82
65374;SHT31;52070;53.760;9.678;2023-07-16T02:13:38;17.26;92.76
65374;SHT31;52070;53.760;9.678;2023-07-16T02:16:05;17.23;92.78
65374;SHT31;52070;53.760;9.678;2023-07-16T02:18:32;17.24;92.60
65374;SHT31;52070;53.760;9.678;2023-07-16T02:21:00;17.17;92.53
65374;SHT31;52070;53.760;9.678;2023-07-16T02:23:28;17.16;92.70
65374;SHT31;52070;53.760;9.678;2023-07-16T02:25:55;17.20;92.48
65374;SHT31;52070;53.760;9.678;2023-07-16T02:28:22;17.20;92.40
65374;SHT31;52070;53.760;9.678;2023-07-16T02:30:49;17.17;92.37
65374;SHT31;52070;53.760;9.678;2023-07-16T02:33:16;17.16;92.63
65374;SHT31;52070;53.760;9.678;2023-07-16T02:35:46;17.17;92.70
65374;SHT31;52070;53.760;9.678;2023-07-16T02:38:14;17.09;92.53
65374;SHT31;52070;53.760;9.678;2023-07-16T02:40:43;17.06;92.65
65374;SHT31;52070;53.760;9.678;2023-07-16T02:43:10;17.10;92.83
65374;SHT31;52070;53.760;9.678;2023-07-16T02:45:37;17.03;92.48
65374;SHT31;52070;53.760;9.678;2023-07-16T02:48:05;17.04;91.50
65374;SHT31;52070;53.760;9.678;2023-07-16T02:50:33;17.03;91.34
65374;SHT31;52070;53.760;9.678;2023-07-16T02:53:00;17.04;91.47
65374;SHT31;52070;53.760;9.678;2023-07-16T02:55:28;17.00;91.36
65374;SHT31;52070;53.760;9.678;2023-07-16T02:57:56;16.97;91.37
65374;SHT31;52070;53.760;9.678;2023-07-16T03:00:23;16.97;91.70
65374;SHT31;52070;53.760;9.678;2023-07-16T03:02:50;16.96;91.66
65374;SHT31;52070;53.760;9.678;2023-07-16T03:05:17;16.93;91.54
65374;SHT31;52070;53.760;9.678;2023-07-16T03:07:44;16.89;91.74
65374;SHT31;52070;53.760;9.678;2023-07-16T03:10:11;16.91;91.79
65374;SHT31;52070;53.760;9.678;2023-07-16T03:12:39;16.87;92.00
65374;SHT31;52070;53.760;9.678;2023-07-16T03:15:08;16.86;92.17
65374;SHT31;52070;53.760;9.678;2023-07-16T03:17:35;16.87;92.21
65374;SHT31;52070;53.760;9.678;2023-07-16T03:20:02;16.86;92.29
65374;SHT31;52070;53.760;9.678;2023-07-16T03:22:31;16.83;92.35
65374;SHT31;52070;53.760;9.678;2023-07-16T03:24:58;16.89;92.39
65374;SHT31;52070;53.760;9.678;2023-07-16T03:27:25;16.86;92.41
65374;SHT31;52070;53.760;9.678;2023-07-16T03:29:53;16.84;92.46
65374;SHT31;52070;53.760;9.678;2023-07-16T03:32:20;16.83;92.47
65374;SHT31;52070;53.760;9.678;2023-07-16T03:34:47;16.80;92.51
65374;SHT31;52070;53.760;9.678;2023-07-16T03:37:14;16.83;92.63
65374;SHT31;52070;53.760;9.678;2023-07-16T03:39:41;16.84;92.69
65374;SHT31;52070;53.760;9.678;2023-07-16T03:42:08;16.80;92.72
65374;SHT31;52070;53.760;9.678;2023-07-16T03:44:35;16.77;92.81
65374;SHT31;52070;53.760;9.678;2023-07-16T03:47:03;16.72;92.77
65374;SHT31;52070;53.760;9.678;2023-07-16T03:49:30;16.69;92.82
65374;SHT31;52070;53.760;9.678;2023-07-16T03:51:57;16.73;92.94
65374;SHT31;52070;53.760;9.678;2023-07-16T03:54:24;16.69;93.00
65374;SHT31;52070;53.760;9.678;2023-07-16T03:56:51;16.70;93.04
65374;SHT31;52070;53.760;9.678;2023-07-16T03:59:18;16.67;93.16
65374;SHT31;52070;53.760;9.678;2023-07-16T04:01:45;16.75;93.21
65374;SHT31;52070;53.760;9.678;2023-07-16T04:04:13;16.76;93.14
65374;SHT31;52070;53.760;9.678;2023-07-16T04:06:40;16.75;93.19
65374;SHT31;52070;53.760;9.678;2023-07-16T04:09:07;16.79;93.27
65374;SHT31;52070;53.760;9.678;2023-07-16T04:11:34;16.77;93.31
65374;SHT31;52070;53.760;9.678;2023-07-16T04:14:01;16.80;93.09
65374;SHT31;52070;53.760;9.678;2023-07-16T04:16:28;16.84;93.08
65374;SHT31;52070;53.760;9.678;2023-07-16T04:18:55;16.89;93.06
65374;SHT31;52070;53.760;9.678;2023-07-16T04:21:23;16.93;92.91
65374;SHT31;52070;53.760;9.678;2023-07-16T04:23:50;16.97;92.99
65374;SHT31;52070;53.760;9.678;2023-07-16T04:26:17;17.00;93.05
65374;SHT31;52070;53.760;9.678;2023-07-16T04:28:44;17.00;92.91
65374;SHT31;52070;53.760;9.678;2023-07-16T04:31:11;17.00;92.90
65374;SHT31;52070;53.760;9.678;2023-07-16T04:33:38;17.04;92.90
65374;SHT31;52070;53.760;9.678;2023-07-16T04:36:05;17.06;92.81
65374;SHT31;52070;53.760;9.678;2023-07-16T04:38:33;17.09;92.64
65374;SHT31;52070;53.760;9.678;2023-07-16T04:41:00;17.06;92.54
65374;SHT31;52070;53.760;9.678;2023-07-16T04:43:27;17.11;92.25
65374;SHT31;52070;53.760;9.678;2023-07-16T04:45:54;17.10;92.32
65374;SHT31;52070;53.760;9.678;2023-07-16T04:48:21;17.16;92.28
65374;SHT31;52070;53.760;9.678;2023-07-16T04:50:48;17.19;92.43
65374;SHT31;52070;53.760;9.678;2023-07-16T04:53:17;17.20;92.46
65374;SHT31;52070;53.760;9.678;2023-07-16T04:55:45;17.19;92.51
65374;SHT31;52070;53.760;9.678;2023-07-16T04:58:12;17.16;92.41
65374;SHT31;52070;53.760;9.678;2023-07-16T05:00:40;17.11;91.97
65374;SHT31;52070;53.760;9.678;2023-07-16T05:03:07;17.09;91.91
65374;SHT31;52070;53.760;9.678;2023-07-16T05:05:34;17.10;92.15
65374;SHT31;52070;53.760;9.678;2023-07-16T05:08:01;17.17;92.14
65374;SHT31;52070;53.760;9.678;2023-07-16T05:10:28;17.20;92.11
65374;SHT31;52070;53.760;9.678;2023-07-16T05:12:56;17.26;92.01
65374;SHT31;52070;53.760;9.678;2023-07-16T05:15:23;17.32;91.96
65374;SHT31;52070;53.760;9.678;2023-07-16T05:17:50;17.45;92.26
65374;SHT31;52070;53.760;9.678;2023-07-16T05:20:17;17.52;91.96
65374;SHT31;52070;53.760;9.678;2023-07-16T05:22:44;17.61;90.98
65374;SHT31;52070;53.760;9.678;2023-07-16T05:25:11;17.61;90.52
65374;SHT31;52070;53.760;9.678;2023-07-16T05:27:38;17.60;90.50
65374;SHT31;52070;53.760;9.678;2023-07-16T05:30:07;17.58;90.37
65374;SHT31;52070;53.760;9.678;2023-07-16T05:32:35;17.52;90.54
65374;SHT31;52070;53.760;9.678;2023-07-16T05:35:02;17.55;90.36
65374;SHT31;52070;53.760;9.678;2023-07-16T05:37:29;17.61;90.01
65374;SHT31;52070;53.760;9.678;2023-07-16T05:39:56;17.65;90.02
65374;SHT31;52070;53.760;9.678;2023-07-16T05:42:23;17.71;89.86
65374;SHT31;52070;53.760;9.678;2023-07-16T05:44:50;17.77;89.37
65374;SHT31;52070;53.760;9.678;2023-07-16T05:47:18;17.89;88.39
65374;SHT31;52070;53.760;9.678;2023-07-16T05:49:45;17.91;87.99
65374;SHT31;52070;53.760;9.678;2023-07-16T05:52:12;17.99;88.07
65374;SHT31;52070;53.760;9.678;2023-07-16T05:54:39;17.99;87.52
65374;SHT31;52070;53.760;9.678;2023-07-16T05:57:06;18.05;87.14
65374;SHT31;52070;53.760;9.678;2023-07-16T05:59:33;18.09;86.32
65374;SHT31;52070;53.760;9.678;2023-07-16T06:02:03;18.15;86.14
65374;SHT31;52070;53.760;9.678;2023-07-16T06:04:31;18.17;85.26
65374;SHT31;52070;53.760;9.678;2023-07-16T06:06:58;18.21;84.35
65374;SHT31;52070;53.760;9.678;2023-07-16T06:09:25;18.28;84.08
65374;SHT31;52070;53.760;9.678;2023-07-16T06:11:52;18.36;83.21
65374;SHT31;52070;53.760;9.678;2023-07-16T06:14:19;18.42;83.28
65374;SHT31;52070;53.760;9.678;2023-07-16T06:16:46;18.43;81.79
65374;SHT31;52070;53.760;9.678;2023-07-16T06:19:13;18.52;80.92
65374;SHT31;52070;53.760;9.678;2023-07-16T06:21:41;18.52;81.10
65374;SHT31;52070;53.760;9.678;2023-07-16T06:24:08;18.57;80.61
65374;SHT31;52070;53.760;9.678;2023-07-16T06:26:35;18.56;80.90
65374;SHT31;52070;53.760;9.678;2023-07-16T06:29:03;18.61;79.42
65374;SHT31;52070;53.760;9.678;2023-07-16T06:31:30;18.67;80.60
65374;SHT31;52070;53.760;9.678;2023-07-16T06:33:57;18.70;79.97
65374;SHT31;52070;53.760;9.678;2023-07-16T06:36:23;18.74;77.15
65374;SHT31;52070;53.760;9.678;2023-07-16T06:38:52;18.86;77.21
65374;SHT31;52070;53.760;9.678;2023-07-16T06:41:19;18.88;76.37
65374;SHT31;52070;53.760;9.678;2023-07-16T06:43:46;18.96;76.33
65374;SHT31;52070;53.760;9.678;2023-07-16T06:46:13;18.96;75.36
65374;SHT31;52070;53.760;9.678;2023-07-16T06:48:40;18.91;75.89
65374;SHT31;52070;53.760;9.678;2023-07-16T06:51:07;18.97;74.54
65374;SHT31;52070;53.760;9.678;2023-07-16T06:53:34;19.01;73.88
65374;SHT31;52070;53.760;9.678;2023-07-16T06:56:03;19.08;73.57
65374;SHT31;52070;53.760;9.678;2023-07-16T06:58:31;19.10;75.47
65374;SHT31;52070;53.760;9.678;2023-07-16T07:01:01;19.15;73.38
65374;SHT31;52070;53.760;9.678;2023-07-16T07:03:28;19.14;71.91
65374;SHT31;52070;53.760;9.678;2023-07-16T07:05:55;19.18;72.96
65374;SHT31;52070;53.760;9.678;2023-07-16T07:08:22;19.20;74.57
65374;SHT31;52070;53.760;9.678;2023-07-16T07:10:49;19.31;73.08
65374;SHT31;52070;53.760;9.678;2023-07-16T07:13:18;19.35;71.84
65374;SHT31;52070;53.760;9.678;2023-07-16T07:15:45;19.44;71.01
65374;SHT31;52070;53.760;9.678;2023-07-16T07:18:12;19.45;72.78
65374;SHT31;52070;53.760;9.678;2023-07-16T07:20:39;19.52;72.36
65374;SHT31;52070;53.760;9.678;2023-07-16T07:23:07;19.61;72.21
65374;SHT31;52070;53.760;9.678;2023-07-16T07:25:34;19.65;71.34
65374;SHT31;52070;53.760;9.678;2023-07-16T07:28:00;19.73;70.84
65374;SHT31;52070;53.760;9.678;2023-07-16T07:30:29;19.76;70.96
65374;SHT31;52070;53.760;9.678;2023-07-16T07:32:56;19.79;70.58
65374;SHT31;52070;53.760;9.678;2023-07-16T07:35:23;19.82;70.33
65374;SHT31;52070;53.760;9.678;2023-07-16T07:37:50;19.90;71.34
65374;SHT31;52070;53.760;9.678;2023-07-16T07:40:17;19.92;70.73
65374;SHT31;52070;53.760;9.678;2023-07-16T07:42:44;19.97;69.56
65374;SHT31;52070;53.760;9.678;2023-07-16T07:45:11;20.02;68.45
65374;SHT31;52070;53.760;9.678;2023-07-16T07:47:39;20.00;69.10
65374;SHT31;52070;53.760;9.678;2023-07-16T07:50:06;20.14;68.73
65374;SHT31;52070;53.760;9.678;2023-07-16T07:52:34;20.10;68.66
65374;SHT31;52070;53.760;9.678;2023-07-16T07:55:01;20.05;67.73
65374;SHT31;52070;53.760;9.678;2023-07-16T07:57:30;20.09;68.60
65374;SHT31;52070;53.760;9.678;2023-07-16T07:59:57;20.23;67.78
65374;SHT31;52070;53.760;9.678;2023-07-16T08:02:25;20.39;69.47
65374;SHT31;52070;53.760;9.678;2023-07-16T08:04:54;20.50;67.31
65374;SHT31;52070;53.760;9.678;2023-07-16T08:07:21;20.50;65.57
65374;SHT31;52070;53.760;9.678;2023-07-16T08:09:49;20.63;65.76
65374;SHT31;52070;53.760;9.678;2023-07-16T08:12:16;20.73;66.58
65374;SHT31;52070;53.760;9.678;2023-07-16T08:14:43;20.83;66.13
65374;SHT31;52070;53.760;9.678;2023-07-16T08:17:10;20.83;65.10
65374;SHT31;52070;53.760;9.678;2023-07-16T08:19:38;20.78;65.41
65374;SHT31;52070;53.760;9.678;2023-07-16T08:22:06;20.77;66.07
65374;SHT31;52070;53.760;9.678;2023-07-16T08:24:33;20.78;66.72
65374;SHT31;52070;53.760;9.678;2023-07-16T08:27:00;20.74;67.87
65374;SHT31;52070;53.760;9.678;2023-07-16T08:29:27;20.70;65.81
65374;SHT31;52070;53.760;9.678;2023-07-16T08:31:54;20.88;66.14
65374;SHT31;52070;53.760;9.678;2023-07-16T08:34:21;21.04;63.11
65374;SHT31;52070;53.760;9.678;2023-07-16T08:36:48;21.01;63.25
65374;SHT31;52070;53.760;9.678;2023-07-16T08:39:16;21.01;63.77
65374;SHT31;52070;53.760;9.678;2023-07-16T08:41:45;21.09;63.42
65374;SHT31;52070;53.760;9.678;2023-07-16T08:44:12;21.05;64.06
65374;SHT31;52070;53.760;9.678;2023-07-16T08:46:39;21.02;63.74
65374;SHT31;52070;53.760;9.678;2023-07-16T08:49:07;20.99;62.26
65374;SHT31;52070;53.760;9.678;2023-07-16T08:51:35;21.09;61.54
65374;SHT31;52070;53.760;9.678;2023-07-16T08:54:04;21.28;61.70
65374;SHT31;52070;53.760;9.678;2023-07-16T08:56:33;21.39;61.59
65374;SHT31;52070;53.760;9.678;2023-07-16T08:59:00;21.46;59.86
65374;SHT31;52070;53.760;9.678;2023-07-16T09:01:27;21.67;61.08
65374;SHT31;52070;53.760;9.678;2023-07-16T09:03:54;21.46;60.13
65374;SHT31;52070;53.760;9.678;2023-07-16T09:06:21;21.56;60.71
65374;SHT31;52070;53.760;9.678;2023-07-16T09:08:48;21.63;60.70
65374;SHT31;52070;53.760;9.678;2023-07-16T09:11:15;21.58;61.67
65374;SHT31;52070;53.760;9.678;2023-07-16T09:13:48;21.58;61.68
65374;SHT31;52070;53.760;9.678;2023-07-16T09:16:17;21.56;61.82
65374;SHT31;52070;53.760;9.678;2023-07-16T09:18:44;21.73;62.01
65374;SHT31;52070;53.760;9.678;2023-07-16T09:21:11;21.76;62.78
65374;SHT31;52070;53.760;9.678;2023-07-16T09:23:38;21.56;61.94
65374;SHT31;52070;53.760;9.678;2023-07-16T09:26:07;21.56;62.34
65374;SHT31;52070;53.760;9.678;2023-07-16T09:28:34;21.96;61.71
65374;SHT31;52070;53.760;9.678;2023-07-16T09:31:06;21.92;61.23
65374;SHT31;52070;53.760;9.678;2023-07-16T09:33:34;21.96;61.95
65374;SHT31;52070;53.760;9.678;2023-07-16T09:36:03;22.00;58.81
65374;SHT31;52070;53.760;9.678;2023-07-16T09:38:31;22.13;58.65
65374;SHT31;52070;53.760;9.678;2023-07-16T09:41:00;22.41;58.49
65374;SHT31;52070;53.760;9.678;2023-07-16T09:43:29;22.02;59.00
65374;SHT31;52070;53.760;9.678;2023-07-16T09:45:57;21.99;59.48
65374;SHT31;52070;53.760;9.678;2023-07-16T09:48:25;22.00;61.48
65374;SHT31;52070;53.760;9.678;2023-07-16T09:50:53;21.92;59.13
65374;SHT31;52070;53.760;9.678;2023-07-16T09:53:21;21.75;58.91
65374;SHT31;52070;53.760;9.678;2023-07-16T09:55:48;21.51;59.16
65374;SHT31;52070;53.760;9.678;2023-07-16T09:58:18;21.31;60.34
65374;SHT31;52070;53.760;9.678;2023-07-16T10:00:46;21.31;59.57
65374;SHT31;52070;53.760;9.678;2023-07-16T10:03:15;21.25;60.27
65374;SHT31;52070;53.760;9.678;2023-07-16T10:05:44;21.17;60.13
65374;SHT31;52070;53.760;9.678;2023-07-16T10:08:18;21.09;61.09
65374;SHT31;52070;53.760;9.678;2023-07-16T10:10:48;21.15;60.71
65374;SHT31;52070;53.760;9.678;2023-07-16T10:13:16;21.14;60.06
65374;SHT31;52070;53.760;9.678;2023-07-16T10:15:52;21.39;59.59
65374;SHT31;52070;53.760;9.678;2023-07-16T10:18:27;21.49;58.21
65374;SHT31;52070;53.760;9.678;2023-07-16T10:21:02;21.31;58.66
65374;SHT31;52070;53.760;9.678;2023-07-16T10:23:38;21.17;58.78
65374;SHT31;52070;53.760;9.678;2023-07-16T10:26:08;21.28;59.28
65374;SHT31;52070;53.760;9.678;2023-07-16T10:28:36;21.96;57.35
65374;SHT31;52070;53.760;9.678;2023-07-16T10:31:05;22.41;56.95
65374;SHT31;52070;53.760;9.678;2023-07-16T10:33:33;23.16;54.60
65374;SHT31;52070;53.760;9.678;2023-07-16T10:36:04;23.28;53.29
65374;SHT31;52070;53.760;9.678;2023-07-16T10:38:40;23.33;54.62
65374;SHT31;52070;53.760;9.678;2023-07-16T10:41:07;23.20;53.40
65374;SHT31;52070;53.760;9.678;2023-07-16T10:43:34;23.48;54.23
65374;SHT31;52070;53.760;9.678;2023-07-16T10:46:02;23.12;53.46
65374;SHT31;52070;53.760;9.678;2023-07-16T10:48:29;23.18;54.22
65374;SHT31;52070;53.760;9.678;2023-07-16T10:50:56;23.39;53.69
65374;SHT31;52070;53.760;9.678;2023-07-16T10:53:25;23.33;53.28
65374;SHT31;52070;53.760;9.678;2023-07-16T10:55:52;23.20;53.73
65374;SHT31;52070;53.760;9.678;2023-07-16T10:58:19;22.58;54.54
65374;SHT31;52070;53.760;9.678;2023-07-16T11:00:46;22.24;56.58
65374;SHT31;52070;53.760;9.678;2023-07-16T11:03:14;22.02;57.79
65374;SHT31;52070;53.760;9.678;2023-07-16T11:05:45;22.10;56.88
65374;SHT31;52070;53.760;9.678;2023-07-16T11:08:21;22.25;56.00
65374;SHT31;52070;53.760;9.678;2023-07-16T11:10:54;22.90;54.08
65374;SHT31;52070;53.760;9.678;2023-07-16T11:13:25;22.78;53.06
65374;SHT31;52070;53.760;9.678;2023-07-16T11:15:52;22.61;54.20
65374;SHT31;52070;53.760;9.678;2023-07-16T11:18:22;22.72;53.81
65374;SHT31;52070;53.760;9.678;2023-07-16T11:20:50;22.58;52.83
65374;SHT31;52070;53.760;9.678;2023-07-16T11:23:17;22.78;53.71
65374;SHT31;52070;53.760;9.678;2023-07-16T11:25:46;22.79;53.12
65374;SHT31;52070;53.760;9.678;2023-07-16T11:28:14;22.90;53.20
65374;SHT31;52070;53.760;9.678;2023-07-16T11:30:41;22.85;52.94
65374;SHT31;52070;53.760;9.678;2023-07-16T11:33:09;22.72;53.55
65374;SHT31;52070;53.760;9.678;2023-07-16T11:35:37;22.84;53.21
65374;SHT31;52070;53.760;9.678;2023-07-16T11:38:05;22.39;53.65
65374;SHT31;52070;53.760;9.678;2023-07-16T11:40:34;22.17;54.26
65374;SHT31;52070;53.760;9.678;2023-07-16T11:43:08;22.25;54.46
65374;SHT31;52070;53.760;9.678;2023-07-16T11:45:37;22.21;55.18
65374;SHT31;52070;53.760;9.678;2023-07-16T11:48:04;22.23;55.52
65374;SHT31;52070;53.760;9.678;2023-07-16T11:50:31;22.23;54.18
65374;SHT31;52070;53.760;9.678;2023-07-16T11:53:00;22.29;53.36
65374;SHT31;52070;53.760;9.678;2023-07-16T11:55:27;22.34;53.69
65374;SHT31;52070;53.760;9.678;2023-07-16T11:57:54;22.21;53.69
65374;SHT31;52070;53.760;9.678;2023-07-16T12:00:22;22.44;54.27
65374;SHT31;52070;53.760;9.678;2023-07-16T12:02:51;22.78;53.19
65374;SHT31;52070;53.760;9.678;2023-07-16T12:05:18;22.87;53.80
65374;SHT31;52070;53.760;9.678;2023-07-16T12:07:45;22.98;53.12
65374;SHT31;52070;53.760;9.678;2023-07-16T12:10:12;23.42;52.25
65374;SHT31;52070;53.760;9.678;2023-07-16T12:12:39;23.33;52.03
65374;SHT31;52070;53.760;9.678;2023-07-16T12:15:07;23.15;51.38
65374;SHT31;52070;53.760;9.678;2023-07-16T12:17:34;22.68;52.57
65374;SHT31;52070;53.760;9.678;2023-07-16T12:20:03;22.44;53.66
65374;SHT31;52070;53.760;9.678;2023-07-16T12:22:31;22.32;53.68
65374;SHT31;52070;53.760;9.678;2023-07-16T12:24:58;22.21;54.87
65374;SHT31;52070;53.760;9.678;2023-07-16T12:27:25;22.25;55.03
65374;SHT31;52070;53.760;9.678;2023-07-16T12:29:52;22.77;54.65
65374;SHT31;52070;53.760;9.678;2023-07-16T12:32:19;22.67;54.73
65374;SHT31;52070;53.760;9.678;2023-07-16T12:34:46;22.68;54.75
65374;SHT31;52070;53.760;9.678;2023-07-16T12:37:14;22.79;53.42
65374;SHT31;52070;53.760;9.678;2023-07-16T12:39:42;22.55;55.25
65374;SHT31;52070;53.760;9.678;2023-07-16T12:42:09;22.36;55.52
65374;SHT31;52070;53.760;9.678;2023-07-16T12:44:36;22.27;55.41
65374;SHT31;52070;53.760;9.678;2023-07-16T12:47:04;22.32;54.69
65374;SHT31;52070;53.760;9.678;2023-07-16T12:49:34;22.24;54.67
65374;SHT31;52070;53.760;9.678;2023-07-16T12:52:01;22.55;54.80
65374;SHT31;52070;53.760;9.678;2023-07-16T12:54:29;22.65;53.30
65374;SHT31;52070;53.760;9.678;2023-07-16T12:56:56;23.19;53.64
65374;SHT31;52070;53.760;9.678;2023-07-16T12:59:23;23.30;55.00
65374;SHT31;52070;53.760;9.678;2023-07-16T13:01:50;22.84;53.21
65374;SHT31;52070;53.760;9.678;2023-07-16T13:04:18;22.54;54.86
65374;SHT31;52070;53.760;9.678;2023-07-16T13:06:45;22.30;54.11
65374;SHT31;52070;53.760;9.678;2023-07-16T13:09:13;22.39;55.31
65374;SHT31;52070;53.760;9.678;2023-07-16T13:11:42;22.63;55.17
65374;SHT31;52070;53.760;9.678;2023-07-16T13:14:09;22.99;54.15
65374;SHT31;52070;53.760;9.678;2023-07-16T13:16:36;23.70;52.74
65374;SHT31;52070;53.760;9.678;2023-07-16T13:19:03;23.82;53.19
65374;SHT31;52070;53.760;9.678;2023-07-16T13:21:30;23.83;52.90
65374;SHT31;52070;53.760;9.678;2023-07-16T13:23:57;23.74;51.74
65374;SHT31;52070;53.760;9.678;2023-07-16T13:26:24;24.03;51.78
65374;SHT31;52070;53.760;9.678;2023-07-16T13:28:52;23.80;52.27
65374;SHT31;52070;53.760;9.678;2023-07-16T13:31:19;23.41;52.47
65374;SHT31;52070;53.760;9.678;2023-07-16T13:33:46;22.97;53.82
65374;SHT31;52070;53.760;9.678;2023-07-16T13:36:13;22.69;55.43
65374;SHT31;52070;53.760;9.678;2023-07-16T13:38:40;22.48;55.41
65374;SHT31;52070;53.760;9.678;2023-07-16T13:41:07;22.68;58.06
65374;SHT31;52070;53.760;9.678;2023-07-16T13:43:35;23.20;57.21
65374;SHT31;52070;53.760;9.678;2023-07-16T13:46:04;22.85;56.08
65374;SHT31;52070;53.760;9.678;2023-07-16T13:48:31;22.95;55.71
65374;SHT31;52070;53.760;9.678;2023-07-16T13:50:58;23.50;55.00
65374;SHT31;52070;53.760;9.678;2023-07-16T13:53:24;24.07;51.90
65374;SHT31;52070;53.760;9.678;2023-07-16T13:55:51;23.35;52.00
65374;SHT31;52070;53.760;9.678;2023-07-16T13:58:19;23.04;52.94
65374;SHT31;52070;53.760;9.678;2023-07-16T14:00:46;22.51;53.57
65374;SHT31;52070;53.760;9.678;2023-07-16T14:03:14;22.43;55.23
65374;SHT31;52070;53.760;9.678;2023-07-16T14:05:41;22.18;55.48
65374;SHT31;52070;53.760;9.678;2023-07-16T14:08:08;22.06;56.08
65374;SHT31;52070;53.760;9.678;2023-07-16T14:10:35;21.88;56.18
65374;SHT31;52070;53.760;9.678;2023-07-16T14:13:02;21.79;58.18
65374;SHT31;52070;53.760;9.678;2023-07-16T14:15:29;21.66;59.01
65374;SHT31;52070;53.760;9.678;2023-07-16T14:17:56;21.49;60.69
65374;SHT31;52070;53.760;9.678;2023-07-16T14:20:24;21.62;60.89
65374;SHT31;52070;53.760;9.678;2023-07-16T14:22:51;22.12;58.36
65374;SHT31;52070;53.760;9.678;2023-07-16T14:25:18;22.91;58.11
65374;SHT31;52070;53.760;9.678;2023-07-16T14:27:45;23.30;55.02
65374;SHT31;52070;53.760;9.678;2023-07-16T14:30:13;23.59;55.14
65374;SHT31;52070;53.760;9.678;2023-07-16T14:32:40;23.67;54.53
65374;SHT31;52070;53.760;9.678;2023-07-16T14:35:09;23.43;55.39
65374;SHT31;52070;53.760;9.678;2023-07-16T14:37:38;23.65;53.85
65374;SHT31;52070;53.760;9.678;2023-07-16T14:40:06;24.06;52.78
65374;SHT31;52070;53.760;9.678;2023-07-16T14:42:34;23.94;52.32
65374;SHT31;52070;53.760;9.678;2023-07-16T14:45:01;24.04;50.51
65374;SHT31;52070;53.760;9.678;2023-07-16T14:47:28;23.90;51.99
65374;SHT31;52070;53.760;9.678;2023-07-16T14:49:55;23.63;53.35
65374;SHT31;52070;53.760;9.678;2023-07-16T14:52:22;24.03;51.35
65374;SHT31;52070;53.760;9.678;2023-07-16T14:54:50;23.58;52.05
65374;SHT31;52070;53.760;9.678;2023-07-16T14:57:17;23.58;52.05
65374;SHT31;52070;53.760;9.678;2023-07-16T14:59:44;23.38;52.16
65374;SHT31;52070;53.760;9.678;2023-07-16T15:02:12;23.38;52.97
65374;SHT31;52070;53.760;9.678;2023-07-16T15:04:39;23.46;53.84
65374;SHT31;52070;53.760;9.678;2023-07-16T15:07:06;23.08;52.95
65374;SHT31;52070;53.760;9.678;2023-07-16T15:09:32;23.53;53.55
65374;SHT31;52070;53.760;9.678;2023-07-16T15:12:00;23.67;52.52
65374;SHT31;52070;53.760;9.678;2023-07-16T15:14:27;23.80;53.29
65374;SHT31;52070;53.760;9.678;2023-07-16T15:16:55;23.77;54.09
65374;SHT31;52070;53.760;9.678;2023-07-16T15:19:21;24.06;53.82
65374;SHT31;52070;53.760;9.678;2023-07-16T15:21:48;23.94;53.05
65374;SHT31;52070;53.760;9.678;2023-07-16T15:24:15;23.58;52.74
65374;SHT31;52070;53.760;9.678;2023-07-16T15:26:43;23.22;54.23
65374;SHT31;52070;53.760;9.678;2023-07-16T15:29:11;22.71;55.72
65374;SHT31;52070;53.760;9.678;2023-07-16T15:31:38;22.60;54.94
65374;SHT31;52070;53.760;9.678;2023-07-16T15:34:05;22.57;54.50